PWSweather.com
Personal Weather Stations
Station Observations
EPTALOFOS
Ampelokipi, ThessalonikiGR 56123

AmpelokipiThessalonikiGR 56123

Lat: 40.6541816, Lon: 22.92589780000003

Elevation: 137

Station Type: Fine Offset WH-3080-Solar

http://www.dmark.gr

Latest ConditionsUpdated 12:30:12 PM GMT+02:02 Sunday, Feb 17, 2019
Currently Today's Max Today's Min Today's Average
Temperature 54.3°F12.4°C 54.3°F12.4°C 36.7°F2.6°C 42.7°F5.9°C
Dew Point 29.2°F-1.6°C 32.0°F0.0°C 28.6°F-1.9°C 29.9°F-1.2°C
Winds 4.6 mph NW7.4 kmh NW 9.2 mph -14.8 kmh - - 3.4 mph 5.5 kmh
Wind Gusts 6.0 mph9.7 kmh 11.4 mph18.3 kmh - -
Humidity 38% 77% 38% 62%
Pressure 30.34 in1027.4 mb 30.37 in1028.4 mb 30.34 in1027.4 mb -
Hour Temp Dew Point Humidity Winds Wind Gusts Pressure Precip Precip Rate Daily Precip Total
12:30 PM 54.3°F12.4°C 29.2°F-1.6°C 38% 4.6 mph NW7.4 kmh NW 6.0 mph9.7 kmh 30.34 in1027.4 mb 0.00 in0.0 mm 0.00 in0.0 mm 0.00 in0.0 mm
12:00 PM 52.3°F11.3°C 29.3°F-1.5°C 41% 5.4 mph ENE8.7 kmh ENE 6.9 mph11.1 kmh 30.36 in1028.1 mb 0.00 in0.0 mm 0.00 in0.0 mm 0.00 in0.0 mm
11:30 AM 50.9°F10.5°C 29.2°F-1.6°C 43% 5.3 mph NW8.5 kmh NW 6.0 mph9.7 kmh 30.36 in1028.1 mb 0.00 in0.0 mm 0.00 in0.0 mm 0.00 in0.0 mm
11:00 AM 50.9°F10.5°C 28.6°F-1.9°C 42% 9.2 mph NW14.8 kmh NW 10.7 mph17.2 kmh 30.37 in1028.4 mb 0.00 in0.0 mm 0.00 in0.0 mm 0.00 in0.0 mm
10:30 AM 52.5°F11.4°C 29.5°F-1.4°C 41% 7.6 mph NW12.2 kmh NW 11.4 mph18.3 kmh 30.37 in1028.4 mb 0.00 in0.0 mm 0.00 in0.0 mm 0.00 in0.0 mm
10:00 AM 51.6°F10.9°C 31.5°F-0.3°C 44% 1.6 mph SSE2.6 kmh SSE 1.6 mph2.6 kmh 30.37 in1028.4 mb 0.00 in0.0 mm 0.00 in0.0 mm 0.00 in0.0 mm
09:30 AM 47.7°F8.7°C 29.9°F-1.2°C 50% 3.8 mph N6.1 kmh N 4.5 mph7.2 kmh 30.37 in1028.4 mb 0.00 in0.0 mm 0.00 in0.0 mm 0.00 in0.0 mm
09:00 AM 47.3°F8.5°C 31.0°F-0.6°C 53% 3.8 mph N6.1 kmh N 4.5 mph7.2 kmh 30.37 in1028.4 mb 0.00 in0.0 mm 0.00 in0.0 mm 0.00 in0.0 mm
08:30 AM 43.2°F6.2°C 30.6°F-0.8°C 60% 4.5 mph NNE7.2 kmh NNE 4.5 mph7.2 kmh 30.37 in1028.4 mb 0.00 in0.0 mm 0.00 in0.0 mm 0.00 in0.0 mm
08:00 AM 39.9°F4.4°C 32.0°F0.0°C 73% 1.9 mph NNW3.1 kmh NNW 3.8 mph6.1 kmh 30.37 in1028.4 mb 0.00 in0.0 mm 0.00 in0.0 mm 0.00 in0.0 mm
07:30 AM 37.0°F2.8°C 29.8°F-1.2°C 75% 2.3 mph NW3.7 kmh NW 3.1 mph5.0 kmh 30.36 in1028.1 mb 0.00 in0.0 mm 0.00 in0.0 mm 0.00 in0.0 mm
07:00 AM 36.9°F2.7°C 30.0°F-1.1°C 76% 2.7 mph NE4.3 kmh NE 3.1 mph5.0 kmh 30.36 in1028.1 mb 0.00 in0.0 mm 0.00 in0.0 mm 0.00 in0.0 mm
06:30 AM 36.9°F2.7°C 30.0°F-1.1°C 76% 2.2 mph NNE3.5 kmh NNE 2.2 mph3.5 kmh 30.35 in1027.8 mb 0.00 in0.0 mm 0.00 in0.0 mm 0.00 in0.0 mm
06:00 AM 36.7°F2.6°C 30.1°F-1.1°C 77% 2.7 mph NW4.3 kmh NW 3.8 mph6.1 kmh 30.36 in1028.1 mb 0.00 in0.0 mm 0.00 in0.0 mm 0.00 in0.0 mm
05:30 AM 37.2°F2.9°C 29.7°F-1.3°C 74% 1.3 mph NE2.1 kmh NE 2.2 mph3.5 kmh 30.36 in1028.1 mb 0.00 in0.0 mm 0.00 in0.0 mm 0.00 in0.0 mm
05:00 AM 37.8°F3.2°C 30.2°F-1.0°C 74% 2.3 mph ENE3.7 kmh ENE 3.1 mph5.0 kmh 30.36 in1028.1 mb 0.00 in0.0 mm 0.00 in0.0 mm 0.00 in0.0 mm
04:30 AM 38.3°F3.5°C 30.4°F-0.9°C 73% 1.9 mph E3.1 kmh E 2.2 mph3.5 kmh 30.36 in1028.1 mb 0.00 in0.0 mm 0.00 in0.0 mm 0.00 in0.0 mm
04:00 AM 38.5°F3.6°C 30.2°F-1.0°C 72% 2.3 mph NNE3.7 kmh NNE 3.8 mph6.1 kmh 30.36 in1028.1 mb 0.00 in0.0 mm 0.00 in0.0 mm 0.00 in0.0 mm
03:30 AM 39.2°F4.0°C 30.2°F-1.0°C 70% 1.1 mph NNE1.8 kmh NNE 2.2 mph3.5 kmh 30.36 in1028.1 mb 0.00 in0.0 mm 0.00 in0.0 mm 0.00 in0.0 mm
03:00 AM 39.2°F4.0°C 29.9°F-1.2°C 69% 1.9 mph ENE3.1 kmh ENE 2.2 mph3.5 kmh 30.36 in1028.1 mb 0.00 in0.0 mm 0.00 in0.0 mm 0.00 in0.0 mm
02:30 AM 39.4°F4.1°C 29.7°F-1.3°C 68% 3.4 mph NNE5.5 kmh NNE 4.5 mph7.2 kmh 30.37 in1028.4 mb 0.00 in0.0 mm 0.00 in0.0 mm 0.00 in0.0 mm
02:00 AM 39.7°F4.3°C 29.7°F-1.3°C 67% 3.6 mph N5.8 kmh N 3.8 mph6.1 kmh 30.37 in1028.4 mb 0.00 in0.0 mm 0.00 in0.0 mm 0.00 in0.0 mm
01:30 AM 40.1°F4.5°C 29.6°F-1.3°C 67% 3.8 mph NE6.1 kmh NE 4.5 mph7.2 kmh 30.37 in1028.4 mb 0.00 in0.0 mm 0.00 in0.0 mm 0.00 in0.0 mm
01:00 AM 40.5°F4.7°C 29.2°F-1.6°C 64% 3.8 mph NE6.1 kmh NE 4.5 mph7.2 kmh 30.37 in1028.4 mb 0.00 in0.0 mm 0.00 in0.0 mm 0.00 in0.0 mm
12:30 AM 40.8°F4.9°C 29.2°F-1.6°C 63% 1.8 mph NE2.9 kmh NE 2.2 mph3.5 kmh 30.37 in1028.4 mb 0.00 in0.0 mm 0.00 in0.0 mm 0.00 in0.0 mm
12:00 AM 41.2°F5.1°C 29.1°F-1.6°C 62% 3.1 mph NE5.0 kmh NE 3.1 mph5.0 kmh 30.37 in1028.4 mb 0.00 in0.0 mm 0.00 in0.0 mm 0.00 in0.0 mm